createdAt,value
2018-07-05T00:03:38.189Z,63.10
2018-07-05T00:08:59.815Z,63.60
2018-07-05T00:14:21.677Z,63.10
2018-07-05T00:19:43.202Z,62.70
2018-07-05T00:25:04.816Z,62.80
2018-07-05T00:30:26.436Z,62.80
2018-07-05T00:35:47.810Z,62.80
2018-07-05T00:41:09.405Z,64.30
2018-07-05T00:46:31.098Z,63.80
2018-07-05T00:51:52.708Z,63.70
2018-07-05T00:57:14.262Z,63.70
2018-07-05T01:02:35.952Z,63.70
2018-07-05T01:07:57.661Z,64.30
2018-07-05T01:13:20.552Z,64.80
2018-07-05T01:18:42.222Z,65.50
2018-07-05T01:24:03.769Z,66.30
2018-07-05T01:29:25.704Z,65.60
2018-07-05T01:34:47.233Z,65.50
2018-07-05T01:40:08.582Z,65.90
2018-07-05T01:45:30.318Z,66.20
2018-07-05T01:50:51.999Z,67.70
2018-07-05T01:56:13.601Z,66.90
2018-07-05T02:01:35.109Z,66.90
2018-07-05T02:06:56.761Z,67.10
2018-07-05T02:12:18.254Z,67.40
2018-07-05T02:17:41.055Z,67.30
2018-07-05T02:23:02.675Z,66.90
2018-07-05T02:28:24.619Z,67.40
2018-07-05T02:33:46.845Z,68.00
2018-07-05T02:39:13.884Z,67.60
2018-07-05T02:44:35.403Z,66.90
2018-07-05T02:49:57.294Z,67.20
2018-07-05T02:55:18.843Z,67.40
2018-07-05T03:00:44.292Z,67.20
2018-07-05T03:06:05.979Z,67.60
2018-07-05T03:11:27.697Z,67.50
2018-07-05T03:16:49.751Z,67.50
2018-07-05T03:22:11.487Z,67.70
2018-07-05T03:27:33.263Z,67.70
2018-07-05T03:32:55.184Z,67.20
2018-07-05T03:38:16.800Z,67.00
2018-07-05T03:43:38.394Z,66.30
2018-07-05T03:49:00.143Z,66.50
2018-07-05T03:54:22.268Z,67.00
2018-07-05T03:59:43.814Z,67.00
2018-07-05T04:05:05.412Z,66.40
2018-07-05T04:10:27.128Z,66.40
2018-07-05T04:15:48.692Z,66.00
2018-07-05T04:21:10.344Z,65.20
2018-07-05T04:26:31.962Z,65.10
2018-07-05T04:31:53.720Z,64.10
2018-07-05T04:37:15.306Z,58.80
2018-07-05T04:42:37.187Z,57.10
2018-07-05T04:47:59.073Z,57.10
2018-07-05T04:53:20.798Z,57.40
2018-07-05T04:58:42.463Z,58.50
2018-07-05T05:04:04.007Z,55.00
2018-07-05T05:09:25.670Z,52.50
2018-07-05T05:14:47.047Z,53.10
2018-07-05T05:20:08.742Z,53.30
2018-07-05T05:25:30.418Z,56.30
2018-07-05T05:30:51.982Z,58.50
2018-07-05T05:36:13.793Z,59.40
2018-07-05T05:41:35.390Z,59.40
2018-07-05T05:46:57.008Z,60.20
2018-07-05T05:52:18.480Z,60.70
2018-07-05T05:57:39.926Z,60.00
2018-07-05T06:03:01.358Z,59.20
2018-07-05T06:08:23.268Z,58.00
2018-07-05T06:13:45.013Z,58.50
2018-07-05T06:19:06.665Z,58.70
2018-07-05T06:24:28.350Z,58.90
2018-07-05T06:29:49.899Z,58.10
2018-07-05T06:35:11.445Z,57.90
2018-07-05T06:40:33.044Z,56.50
2018-07-05T06:45:54.819Z,57.40
2018-07-05T06:51:16.353Z,56.60
2018-07-05T06:56:38.295Z,55.60
2018-07-05T07:01:59.664Z,56.20
2018-07-05T07:07:21.196Z,57.50
2018-07-05T07:12:42.777Z,56.00
2018-07-05T07:18:04.302Z,55.50
2018-07-05T07:23:25.768Z,54.70
2018-07-05T07:28:47.325Z,55.00
2018-07-05T07:34:08.908Z,52.20
2018-07-05T07:39:30.570Z,51.80
2018-07-05T07:49:42.714Z,49.10
2018-07-05T07:54:45.502Z,48.30
2018-07-05T07:59:48.338Z,48.80
2018-07-05T08:04:51.262Z,50.30
2018-07-05T08:09:54.163Z,46.80
2018-07-05T08:14:57.346Z,46.20
2018-07-05T08:20:00.211Z,46.50
2018-07-05T08:25:03.061Z,45.60
2018-07-05T08:30:05.870Z,45.50
2018-07-05T08:35:08.804Z,46.00
2018-07-05T08:40:11.627Z,47.10
2018-07-05T08:45:14.696Z,47.10
2018-07-05T08:50:17.735Z,47.00
2018-07-05T08:55:20.758Z,46.30
2018-07-05T09:00:23.728Z,45.00
2018-07-05T09:05:26.629Z,43.30
2018-07-05T09:10:29.565Z,42.40
2018-07-05T09:15:32.414Z,42.10
2018-07-05T09:20:35.281Z,42.80
2018-07-05T09:25:38.124Z,41.20
2018-07-05T09:35:44.415Z,41.60
2018-07-05T09:40:47.212Z,40.90
2018-07-05T09:45:50.059Z,41.30
2018-07-05T09:50:53.176Z,41.10
2018-07-05T09:55:56.162Z,41.40
2018-07-05T10:00:59.221Z,41.40
2018-07-05T10:06:02.108Z,41.90
2018-07-05T10:11:04.876Z,41.10
2018-07-05T10:16:07.763Z,41.50
2018-07-05T10:21:10.610Z,41.60
2018-07-05T10:26:13.962Z,41.90
2018-07-05T10:31:29.393Z,41.50
2018-07-05T10:36:38.565Z,42.40
2018-07-05T10:41:53.974Z,42.50
2018-07-05T10:47:15.569Z,41.40
2018-07-05T10:52:37.097Z,42.60
2018-07-05T10:58:01.653Z,41.80
2018-07-05T11:03:24.022Z,41.70
2018-07-05T11:08:46.527Z,41.80
2018-07-05T11:14:08.086Z,42.00
2018-07-05T11:19:29.758Z,42.10
2018-07-05T11:24:51.507Z,43.20
2018-07-05T11:30:13.062Z,43.10
2018-07-05T11:35:34.899Z,43.20
2018-07-05T11:40:56.409Z,43.50
2018-07-05T11:46:17.789Z,43.10
2018-07-05T11:51:39.423Z,42.90
2018-07-05T11:57:01.066Z,43.70
2018-07-05T12:02:22.749Z,43.60
2018-07-05T12:07:44.291Z,43.30
2018-07-05T12:13:05.798Z,43.90
2018-07-05T12:18:27.440Z,43.90
2018-07-05T12:23:48.779Z,43.60
2018-07-05T12:34:25.611Z,44.40
2018-07-05T12:39:47.626Z,45.00
2018-07-05T12:45:09.308Z,45.50
2018-07-05T12:50:30.749Z,45.20
2018-07-05T12:55:52.196Z,44.00
2018-07-05T13:01:13.850Z,45.70
2018-07-05T13:06:35.391Z,44.20
2018-07-05T13:11:56.836Z,45.30
2018-07-05T13:17:18.443Z,44.80
2018-07-05T13:22:39.979Z,44.10
2018-07-05T13:28:01.471Z,43.60
2018-07-05T13:33:23.019Z,42.20
2018-07-05T13:38:44.489Z,42.80
2018-07-05T13:44:06.050Z,41.50
2018-07-05T13:49:27.542Z,42.70
2018-07-05T13:54:49.010Z,44.40
2018-07-05T14:00:10.714Z,45.30
2018-07-05T14:05:32.226Z,46.10
2018-07-05T14:10:54.061Z,46.60
2018-07-05T14:16:15.698Z,47.50
2018-07-05T14:21:37.059Z,48.00
2018-07-05T14:26:58.587Z,48.20
2018-07-05T14:37:35.406Z,48.30
2018-07-05T14:42:56.982Z,48.30
2018-07-05T14:48:18.435Z,48.60
2018-07-05T14:53:39.970Z,48.60
2018-07-05T14:59:01.430Z,49.70
2018-07-05T15:04:23.093Z,50.60
2018-07-05T15:09:44.737Z,50.20
2018-07-05T15:15:06.251Z,50.00
2018-07-05T15:20:27.819Z,49.50
2018-07-05T15:25:49.361Z,49.60
2018-07-05T15:31:11.219Z,49.80
2018-07-05T15:36:32.753Z,50.50
2018-07-05T15:41:54.825Z,50.90
2018-07-05T15:47:16.411Z,51.00
2018-07-05T15:52:37.884Z,50.90
2018-07-05T15:57:59.464Z,50.60
2018-07-05T16:03:21.139Z,50.60
2018-07-05T16:08:43.803Z,51.20
2018-07-05T16:14:05.212Z,51.60
2018-07-05T16:19:26.825Z,51.60
2018-07-05T16:24:48.188Z,52.00
2018-07-05T16:30:09.635Z,51.60
2018-07-05T16:35:31.319Z,50.50
2018-07-05T16:40:52.775Z,49.30
2018-07-05T16:46:14.202Z,49.90
2018-07-05T16:51:35.743Z,50.90
2018-07-05T16:57:04.110Z,50.00
2018-07-05T17:02:30.051Z,51.20
2018-07-05T17:07:51.474Z,52.20
2018-07-05T17:13:12.970Z,53.00
2018-07-05T17:18:34.676Z,53.00
2018-07-05T17:23:56.154Z,53.60
2018-07-05T17:29:17.695Z,53.90
2018-07-05T17:34:39.392Z,53.60
2018-07-05T17:40:01.385Z,54.20
2018-07-05T17:45:22.975Z,54.80
2018-07-05T17:50:44.749Z,54.90
2018-07-05T17:56:06.151Z,55.10
2018-07-05T18:01:27.619Z,54.90
2018-07-05T18:06:49.784Z,54.80
2018-07-05T18:12:11.319Z,54.50
2018-07-05T18:17:32.991Z,54.50
2018-07-05T18:22:54.580Z,54.10
2018-07-05T18:28:16.285Z,53.10
2018-07-05T18:38:55.018Z,52.90
2018-07-05T18:44:16.637Z,52.70
2018-07-05T18:49:38.211Z,53.00
2018-07-05T18:54:59.699Z,53.70
2018-07-05T19:00:21.450Z,53.20
2018-07-05T19:05:45.110Z,53.30
2018-07-05T19:11:06.831Z,54.20
2018-07-05T19:16:28.627Z,54.50
2018-07-05T19:21:50.262Z,54.80
2018-07-05T19:27:12.176Z,55.30
2018-07-05T19:32:33.697Z,55.90
2018-07-05T19:37:56.982Z,55.60
2018-07-05T19:43:18.469Z,55.50
2018-07-05T19:48:40.046Z,56.00
2018-07-05T19:54:01.539Z,56.00
2018-07-05T19:59:23.115Z,56.00
2018-07-05T20:04:44.773Z,56.40
2018-07-05T20:10:06.165Z,56.20
2018-07-05T20:15:27.686Z,56.30
2018-07-05T20:20:49.406Z,56.60
2018-07-05T20:26:10.974Z,56.80
2018-07-05T20:31:33.081Z,56.70
2018-07-05T20:37:01.580Z,56.50
2018-07-05T20:42:24.395Z,56.80
2018-07-05T20:47:46.074Z,56.90
2018-07-05T20:53:07.478Z,56.90
2018-07-05T20:58:29.091Z,57.00
2018-07-05T21:03:50.729Z,57.50
2018-07-05T21:09:12.154Z,57.20
2018-07-05T21:14:33.697Z,57.50
2018-07-05T21:25:11.260Z,57.70
2018-07-05T21:30:32.856Z,57.70
2018-07-05T21:35:54.589Z,58.30
2018-07-05T21:41:16.131Z,58.50
2018-07-05T21:51:53.305Z,58.90
2018-07-05T21:57:14.882Z,59.00
2018-07-05T22:02:36.474Z,59.40
2018-07-05T22:07:57.981Z,59.60
2018-07-05T22:13:19.388Z,60.00
2018-07-05T22:18:46.400Z,60.10
2018-07-05T22:24:13.526Z,60.20
2018-07-05T22:29:40.553Z,60.50
2018-07-05T22:35:02.168Z,60.80
2018-07-05T22:40:24.742Z,60.80
2018-07-05T22:45:54.097Z,60.80
2018-07-05T22:51:15.755Z,61.30
2018-07-05T22:56:37.120Z,61.70
2018-07-05T23:01:58.838Z,62.60
2018-07-05T23:07:20.518Z,63.00
2018-07-05T23:12:42.123Z,63.40
2018-07-05T23:18:03.742Z,63.10
2018-07-05T23:23:25.368Z,62.70
2018-07-05T23:28:46.947Z,62.50
2018-07-05T23:34:08.542Z,62.70
2018-07-05T23:39:30.208Z,62.60
2018-07-05T23:44:51.690Z,62.60
2018-07-05T23:50:13.190Z,62.70
2018-07-05T23:55:34.857Z,62.50
